sensor_id;sensor_type;location;lat;lon;timestamp;pressure;altitude;pressure_sealevel;temperature;humidity
73085;BME280;62974;49.460;10.892;2023-06-24T00:02:20;98680.28;;;17.33;83.23
73085;BME280;62974;49.460;10.892;2023-06-24T00:04:50;98680.09;;;17.28;83.33
73085;BME280;62974;49.460;10.892;2023-06-24T00:07:18;98685.31;;;17.30;82.69
73085;BME280;62974;49.460;10.892;2023-06-24T00:09:48;98681.78;;;17.29;82.61
73085;BME280;62974;49.460;10.892;2023-06-24T00:12:16;98687.28;;;17.23;83.85
73085;BME280;62974;49.460;10.892;2023-06-24T00:14:46;98679.34;;;17.21;83.26
73085;BME280;62974;49.460;10.892;2023-06-24T00:17:15;98683.72;;;17.22;83.04
73085;BME280;62974;49.460;10.892;2023-06-24T00:19:43;98680.81;;;17.17;83.89
73085;BME280;62974;49.460;10.892;2023-06-24T00:22:11;98671.84;;;17.17;82.84
73085;BME280;62974;49.460;10.892;2023-06-24T00:24:41;98676.72;;;17.08;84.27
73085;BME280;62974;49.460;10.892;2023-06-24T00:27:09;98671.53;;;17.07;83.78
73085;BME280;62974;49.460;10.892;2023-06-24T00:29:37;98674.91;;;17.02;84.08
73085;BME280;62974;49.460;10.892;2023-06-24T00:32:06;98669.66;;;17.07;83.05
73085;BME280;62974;49.460;10.892;2023-06-24T00:34:35;98674.50;;;16.99;83.08
73085;BME280;62974;49.460;10.892;2023-06-24T00:37:02;98670.75;;;17.00;83.00
73085;BME280;62974;49.460;10.892;2023-06-24T00:39:30;98668.63;;;17.02;82.19
73085;BME280;62974;49.460;10.892;2023-06-24T00:41:58;98659.28;;;16.98;82.84
73085;BME280;62974;49.460;10.892;2023-06-24T00:44:25;98656.16;;;16.94;82.39
73085;BME280;62974;49.460;10.892;2023-06-24T00:46:54;98652.44;;;16.88;82.52
73085;BME280;62974;49.460;10.892;2023-06-24T00:49:21;98648.03;;;16.94;81.87
73085;BME280;62974;49.460;10.892;2023-06-24T00:51:50;98642.25;;;16.84;82.65
73085;BME280;62974;49.460;10.892;2023-06-24T00:54:18;98639.13;;;16.80;82.66
73085;BME280;62974;49.460;10.892;2023-06-24T00:56:46;98641.84;;;16.80;82.09
73085;BME280;62974;49.460;10.892;2023-06-24T00:59:15;98638.09;;;16.81;81.69
73085;BME280;62974;49.460;10.892;2023-06-24T01:01:44;98639.19;;;16.74;82.21
73085;BME280;62974;49.460;10.892;2023-06-24T01:04:13;98633.00;;;16.67;82.48
73085;BME280;62974;49.460;10.892;2023-06-24T01:06:42;98635.25;;;16.70;81.91
73085;BME280;62974;49.460;10.892;2023-06-24T01:09:12;98640.47;;;16.71;81.68
73085;BME280;62974;49.460;10.892;2023-06-24T01:11:39;98633.44;;;16.64;81.70
73085;BME280;62974;49.460;10.892;2023-06-24T01:14:07;98626.53;;;16.61;81.67
73085;BME280;62974;49.460;10.892;2023-06-24T01:16:40;98629.25;;;16.61;81.42
73085;BME280;62974;49.460;10.892;2023-06-24T01:22:15;98625.31;;;16.57;81.03
73085;BME280;62974;49.460;10.892;2023-06-24T01:25:05;98627.44;;;16.49;81.37
73085;BME280;62974;49.460;10.892;2023-06-24T01:28:06;98631.38;;;16.53;80.77
73085;BME280;62974;49.460;10.892;2023-06-24T01:30:50;98628.69;;;16.46;81.57
73085;BME280;62974;49.460;10.892;2023-06-24T01:33:26;98630.19;;;16.42;81.52
73085;BME280;62974;49.460;10.892;2023-06-24T01:36:01;98621.66;;;16.38;81.24
73085;BME280;62974;49.460;10.892;2023-06-24T01:38:34;98626.25;;;16.38;81.70
73085;BME280;62974;49.460;10.892;2023-06-24T01:41:04;98619.34;;;16.42;80.59
73085;BME280;62974;49.460;10.892;2023-06-24T01:43:34;98621.47;;;16.33;81.02
73085;BME280;62974;49.460;10.892;2023-06-24T01:46:03;98627.13;;;16.32;80.93
73085;BME280;62974;49.460;10.892;2023-06-24T01:48:35;98624.00;;;16.28;80.81
73085;BME280;62974;49.460;10.892;2023-06-24T01:51:18;98617.75;;;16.28;80.63
73085;BME280;62974;49.460;10.892;2023-06-24T01:53:49;98611.31;;;16.22;80.68
73085;BME280;62974;49.460;10.892;2023-06-24T01:56:20;98611.13;;;16.17;81.21
73085;BME280;62974;49.460;10.892;2023-06-24T01:58:51;98604.06;;;16.16;80.43
73085;BME280;62974;49.460;10.892;2023-06-24T02:01:20;98603.66;;;16.13;80.90
73085;BME280;62974;49.460;10.892;2023-06-24T02:03:54;98607.78;;;16.22;80.24
73085;BME280;62974;49.460;10.892;2023-06-24T02:06:24;98604.47;;;16.13;80.45
73085;BME280;62974;49.460;10.892;2023-06-24T02:08:54;98599.50;;;16.10;80.72
73085;BME280;62974;49.460;10.892;2023-06-24T02:11:25;98608.28;;;16.06;80.91
73085;BME280;62974;49.460;10.892;2023-06-24T02:13:56;98604.31;;;16.08;80.41
73085;BME280;62974;49.460;10.892;2023-06-24T02:16:26;98603.69;;;16.06;80.44
73085;BME280;62974;49.460;10.892;2023-06-24T02:18:56;98598.47;;;16.05;80.39
73085;BME280;62974;49.460;10.892;2023-06-24T02:21:25;98593.34;;;15.90;80.35
73085;BME280;62974;49.460;10.892;2023-06-24T02:23:55;98598.31;;;15.93;80.35
73085;BME280;62974;49.460;10.892;2023-06-24T02:26:23;98596.03;;;15.90;80.15
73085;BME280;62974;49.460;10.892;2023-06-24T02:28:52;98593.97;;;15.92;80.36
73085;BME280;62974;49.460;10.892;2023-06-24T02:31:20;98592.72;;;15.88;80.10
73085;BME280;62974;49.460;10.892;2023-06-24T02:33:48;98592.94;;;15.86;79.86
73085;BME280;62974;49.460;10.892;2023-06-24T02:36:17;98594.41;;;15.82;79.78
73085;BME280;62974;49.460;10.892;2023-06-24T02:38:44;98595.66;;;15.86;79.56
73085;BME280;62974;49.460;10.892;2023-06-24T02:41:12;98599.41;;;15.85;79.57
73085;BME280;62974;49.460;10.892;2023-06-24T02:43:40;98597.13;;;15.82;79.49
73085;BME280;62974;49.460;10.892;2023-06-24T02:46:07;98604.00;;;15.78;79.78
73085;BME280;62974;49.460;10.892;2023-06-24T02:48:37;98612.38;;;15.70;79.88
73085;BME280;62974;49.460;10.892;2023-06-24T02:51:07;98607.16;;;15.69;79.81
73085;BME280;62974;49.460;10.892;2023-06-24T02:53:38;98609.84;;;15.69;79.34
73085;BME280;62974;49.460;10.892;2023-06-24T02:56:06;98606.75;;;15.65;79.44
73085;BME280;62974;49.460;10.892;2023-06-24T02:58:36;98612.63;;;15.56;79.79
73085;BME280;62974;49.460;10.892;2023-06-24T03:01:06;98611.56;;;15.57;79.90
73085;BME280;62974;49.460;10.892;2023-06-24T03:03:34;98618.00;;;15.62;79.67
73085;BME280;62974;49.460;10.892;2023-06-24T03:06:03;98620.34;;;15.52;79.94
73085;BME280;62974;49.460;10.892;2023-06-24T03:08:31;98613.47;;;15.49;80.07
73085;BME280;62974;49.460;10.892;2023-06-24T03:11:00;98615.75;;;15.53;79.86
73085;BME280;62974;49.460;10.892;2023-06-24T03:13:29;98627.00;;;15.56;79.58
73085;BME280;62974;49.460;10.892;2023-06-24T03:15:56;98622.63;;;15.48;79.59
73085;BME280;62974;49.460;10.892;2023-06-24T03:18:24;98623.00;;;15.45;79.89
73085;BME280;62974;49.460;10.892;2023-06-24T03:20:51;98628.66;;;15.37;80.55
73085;BME280;62974;49.460;10.892;2023-06-24T03:23:19;98626.97;;;15.43;80.08
73085;BME280;62974;49.460;10.892;2023-06-24T03:25:47;98624.28;;;15.43;80.23
73085;BME280;62974;49.460;10.892;2023-06-24T03:28:15;98628.66;;;15.37;80.44
73085;BME280;62974;49.460;10.892;2023-06-24T03:30:43;98629.28;;;15.39;80.51
73085;BME280;62974;49.460;10.892;2023-06-24T03:33:11;98633.47;;;15.35;80.94
73085;BME280;62974;49.460;10.892;2023-06-24T03:35:43;98624.50;;;15.48;80.18
73085;BME280;62974;49.460;10.892;2023-06-24T03:38:10;98640.94;;;15.46;79.86
73085;BME280;62974;49.460;10.892;2023-06-24T03:40:38;98636.34;;;15.54;79.37
73085;BME280;62974;49.460;10.892;2023-06-24T03:43:06;98648.22;;;15.46;80.25
73085;BME280;62974;49.460;10.892;2023-06-24T03:45:34;98647.81;;;15.42;80.60
73085;BME280;62974;49.460;10.892;2023-06-24T03:48:03;98655.31;;;15.40;81.01
73085;BME280;62974;49.460;10.892;2023-06-24T03:50:30;98657.16;;;15.46;80.34
73085;BME280;62974;49.460;10.892;2023-06-24T03:52:58;98662.59;;;15.53;79.50
73085;BME280;62974;49.460;10.892;2023-06-24T03:55:25;98661.31;;;15.49;79.93
73085;BME280;62974;49.460;10.892;2023-06-24T03:57:53;98665.09;;;15.48;80.04
73085;BME280;62974;49.460;10.892;2023-06-24T04:00:21;98667.81;;;15.48;80.24
73085;BME280;62974;49.460;10.892;2023-06-24T04:02:50;98670.94;;;15.58;78.87
73085;BME280;62974;49.460;10.892;2023-06-24T04:05:20;98671.75;;;15.59;79.13
73085;BME280;62974;49.460;10.892;2023-06-24T04:07:48;98681.31;;;15.02;83.86
73085;BME280;62974;49.460;10.892;2023-06-24T04:10:18;98682.38;;;15.47;80.79
73085;BME280;62974;49.460;10.892;2023-06-24T04:12:46;98682.19;;;15.48;80.95
73085;BME280;62974;49.460;10.892;2023-06-24T04:15:13;98673.19;;;15.61;79.67
73085;BME280;62974;49.460;10.892;2023-06-24T04:17:41;98681.97;;;15.63;79.58
73085;BME280;62974;49.460;10.892;2023-06-24T04:20:11;98686.13;;;15.66;79.33
73085;BME280;62974;49.460;10.892;2023-06-24T04:22:41;98691.75;;;15.71;79.23
73085;BME280;62974;49.460;10.892;2023-06-24T04:25:09;98694.44;;;15.71;79.73
73085;BME280;62974;49.460;10.892;2023-06-24T04:27:36;98695.06;;;15.79;78.96
73085;BME280;62974;49.460;10.892;2023-06-24T04:30:05;98695.03;;;15.86;78.39
73085;BME280;62974;49.460;10.892;2023-06-24T04:32:33;98696.31;;;15.83;78.71
73085;BME280;62974;49.460;10.892;2023-06-24T04:35:00;98697.94;;;15.91;78.62
73085;BME280;62974;49.460;10.892;2023-06-24T04:37:29;98695.00;;;15.92;79.37
73085;BME280;62974;49.460;10.892;2023-06-24T04:39:57;98700.44;;;15.92;79.91
73085;BME280;62974;49.460;10.892;2023-06-24T04:42:25;98698.56;;;15.86;81.33
73085;BME280;62974;49.460;10.892;2023-06-24T04:44:52;98704.59;;;15.95;80.37
73085;BME280;62974;49.460;10.892;2023-06-24T04:47:20;98702.69;;;16.02;79.37
73085;BME280;62974;49.460;10.892;2023-06-24T04:49:47;98705.38;;;16.15;78.48
73085;BME280;62974;49.460;10.892;2023-06-24T04:52:15;98709.75;;;16.16;80.32
73085;BME280;62974;49.460;10.892;2023-06-24T04:54:44;98717.00;;;16.29;79.41
73085;BME280;62974;49.460;10.892;2023-06-24T04:57:23;98707.78;;;16.36;78.51
73085;BME280;62974;49.460;10.892;2023-06-24T04:59:51;98705.25;;;16.48;78.61
73085;BME280;62974;49.460;10.892;2023-06-24T05:02:19;98714.63;;;16.59;80.14
73085;BME280;62974;49.460;10.892;2023-06-24T05:04:46;98722.56;;;16.47;82.56
73085;BME280;62974;49.460;10.892;2023-06-24T05:07:14;98730.69;;;15.76;87.76
73085;BME280;62974;49.460;10.892;2023-06-24T05:09:45;98724.88;;;16.37;84.34
73085;BME280;62974;49.460;10.892;2023-06-24T05:12:13;98734.63;;;16.00;90.70
73085;BME280;62974;49.460;10.892;2023-06-24T05:14:40;98732.56;;;16.47;88.72
73085;BME280;62974;49.460;10.892;2023-06-24T05:17:08;98731.84;;;16.20;90.67
73085;BME280;62974;49.460;10.892;2023-06-24T05:19:35;98730.38;;;16.17;89.70
73085;BME280;62974;49.460;10.892;2023-06-24T05:22:03;98735.84;;;15.97;93.26
73085;BME280;62974;49.460;10.892;2023-06-24T05:24:31;98721.53;;;16.48;87.35
73085;BME280;62974;49.460;10.892;2023-06-24T05:27:03;98718.94;;;16.66;83.50
73085;BME280;62974;49.460;10.892;2023-06-24T05:29:31;98727.41;;;16.38;87.80
73085;BME280;62974;49.460;10.892;2023-06-24T05:31:59;98729.69;;;16.86;85.76
73085;BME280;62974;49.460;10.892;2023-06-24T05:34:30;98733.75;;;16.70;88.20
73085;BME280;62974;49.460;10.892;2023-06-24T05:36:57;98727.75;;;16.93;85.65
73085;BME280;62974;49.460;10.892;2023-06-24T05:39:25;98728.03;;;16.85;86.31
73085;BME280;62974;49.460;10.892;2023-06-24T05:41:53;98730.84;;;17.03;86.34
73085;BME280;62974;49.460;10.892;2023-06-24T05:44:22;98724.34;;;17.35;85.02
73085;BME280;62974;49.460;10.892;2023-06-24T05:46:50;98728.13;;;17.28;86.20
73085;BME280;62974;49.460;10.892;2023-06-24T05:49:17;98733.03;;;17.44;84.46
73085;BME280;62974;49.460;10.892;2023-06-24T05:51:45;98737.66;;;17.44;84.66
73085;BME280;62974;49.460;10.892;2023-06-24T05:54:12;98738.97;;;17.34;85.37
73085;BME280;62974;49.460;10.892;2023-06-24T05:56:40;98737.91;;;17.67;85.67
73085;BME280;62974;49.460;10.892;2023-06-24T05:59:07;98736.25;;;17.84;83.96
73085;BME280;62974;49.460;10.892;2023-06-24T06:01:36;98735.22;;;17.60;81.49
73085;BME280;62974;49.460;10.892;2023-06-24T06:04:04;98726.97;;;17.92;80.35
73085;BME280;62974;49.460;10.892;2023-06-24T06:06:31;98724.78;;;17.82;80.80
73085;BME280;62974;49.460;10.892;2023-06-24T06:08:59;98730.31;;;18.12;79.93
73085;BME280;62974;49.460;10.892;2023-06-24T06:11:27;98728.66;;;18.29;79.31
73085;BME280;62974;49.460;10.892;2023-06-24T06:13:54;98734.72;;;18.13;83.39
73085;BME280;62974;49.460;10.892;2023-06-24T06:16:22;98733.91;;;18.30;82.76
73085;BME280;62974;49.460;10.892;2023-06-24T06:18:51;98718.47;;;18.43;79.99
73085;BME280;62974;49.460;10.892;2023-06-24T06:21:18;98725.34;;;18.45;79.40
73085;BME280;62974;49.460;10.892;2023-06-24T06:23:46;98713.66;;;18.63;77.98
73085;BME280;62974;49.460;10.892;2023-06-24T06:26:13;98716.25;;;18.99;81.01
73085;BME280;62974;49.460;10.892;2023-06-24T06:28:41;98704.63;;;19.22;76.75
73085;BME280;62974;49.460;10.892;2023-06-24T06:31:09;98708.88;;;19.18;77.44
73085;BME280;62974;49.460;10.892;2023-06-24T06:33:36;98703.28;;;19.13;75.30
73085;BME280;62974;49.460;10.892;2023-06-24T06:36:05;98696.28;;;19.05;74.18
73085;BME280;62974;49.460;10.892;2023-06-24T06:38:33;98706.53;;;19.33;75.40
73085;BME280;62974;49.460;10.892;2023-06-24T06:41:01;98704.84;;;19.32;74.96
73085;BME280;62974;49.460;10.892;2023-06-24T06:43:28;98704.63;;;19.34;74.05
73085;BME280;62974;49.460;10.892;2023-06-24T06:45:56;98707.97;;;19.47;74.73
73085;BME280;62974;49.460;10.892;2023-06-24T06:48:23;98701.97;;;19.45;74.44
73085;BME280;62974;49.460;10.892;2023-06-24T06:50:51;98702.69;;;19.64;71.75
73085;BME280;62974;49.460;10.892;2023-06-24T06:53:20;98706.94;;;19.60;71.92
73085;BME280;62974;49.460;10.892;2023-06-24T06:55:48;98702.81;;;19.57;73.21
73085;BME280;62974;49.460;10.892;2023-06-24T06:58:16;98697.00;;;19.65;70.26
73085;BME280;62974;49.460;10.892;2023-06-24T07:00:43;98689.66;;;19.78;70.27
73085;BME280;62974;49.460;10.892;2023-06-24T07:03:11;98700.66;;;19.59;72.26
73085;BME280;62974;49.460;10.892;2023-06-24T07:05:38;98703.72;;;19.51;72.34
73085;BME280;62974;49.460;10.892;2023-06-24T07:08:06;98693.53;;;20.05;70.59
73085;BME280;62974;49.460;10.892;2023-06-24T07:10:35;98697.59;;;20.02;72.46
73085;BME280;62974;49.460;10.892;2023-06-24T07:13:03;98697.53;;;20.26;71.33
73085;BME280;62974;49.460;10.892;2023-06-24T07:15:30;98683.28;;;20.35;69.73
73085;BME280;62974;49.460;10.892;2023-06-24T07:17:58;98681.91;;;20.61;68.63
73085;BME280;62974;49.460;10.892;2023-06-24T07:20:26;98694.47;;;20.74;70.68
73085;BME280;62974;49.460;10.892;2023-06-24T07:22:53;98681.31;;;20.87;68.49
73085;BME280;62974;49.460;10.892;2023-06-24T07:25:21;98687.38;;;20.89;67.63
73085;BME280;62974;49.460;10.892;2023-06-24T07:27:50;98694.56;;;20.95;69.90
73085;BME280;62974;49.460;10.892;2023-06-24T07:30:17;98677.09;;;20.80;67.45
73085;BME280;62974;49.460;10.892;2023-06-24T07:32:45;98674.41;;;20.96;65.48
73085;BME280;62974;49.460;10.892;2023-06-24T07:35:12;98667.22;;;20.79;64.82
73085;BME280;62974;49.460;10.892;2023-06-24T07:37:42;98660.56;;;20.58;64.08
73085;BME280;62974;49.460;10.892;2023-06-24T07:40:09;98668.84;;;20.63;64.74
73085;BME280;62974;49.460;10.892;2023-06-24T07:42:37;98676.53;;;21.39;66.39
73085;BME280;62974;49.460;10.892;2023-06-24T07:45:07;98672.00;;;21.00;63.43
73085;BME280;62974;49.460;10.892;2023-06-24T07:47:34;98674.56;;;20.90;63.44
73085;BME280;62974;49.460;10.892;2023-06-24T07:50:02;98670.16;;;21.34;63.20
73085;BME280;62974;49.460;10.892;2023-06-24T07:52:29;98665.91;;;21.09;65.88
73085;BME280;62974;49.460;10.892;2023-06-24T07:54:57;98667.88;;;20.97;62.92
73085;BME280;62974;49.460;10.892;2023-06-24T07:57:26;98673.06;;;21.61;62.72
73085;BME280;62974;49.460;10.892;2023-06-24T07:59:54;98675.78;;;21.44;62.85
73085;BME280;62974;49.460;10.892;2023-06-24T08:02:23;98673.84;;;21.94;61.82
73085;BME280;62974;49.460;10.892;2023-06-24T08:04:51;98675.19;;;21.59;63.17
73085;BME280;62974;49.460;10.892;2023-06-24T08:07:19;98680.19;;;21.62;64.05
73085;BME280;62974;49.460;10.892;2023-06-24T08:09:46;98682.66;;;21.46;65.01
73085;BME280;62974;49.460;10.892;2023-06-24T08:12:14;98680.78;;;21.02;62.25
73085;BME280;62974;49.460;10.892;2023-06-24T08:14:42;98674.06;;;21.21;61.66
73085;BME280;62974;49.460;10.892;2023-06-24T08:17:09;98667.59;;;20.99;61.87
73085;BME280;62974;49.460;10.892;2023-06-24T08:19:38;98668.25;;;21.18;61.60
73085;BME280;62974;49.460;10.892;2023-06-24T08:22:05;98675.13;;;20.92;61.41
73085;BME280;62974;49.460;10.892;2023-06-24T08:24:33;98669.91;;;21.35;61.08
73085;BME280;62974;49.460;10.892;2023-06-24T08:27:01;98673.41;;;21.86;62.63
73085;BME280;62974;49.460;10.892;2023-06-24T08:29:28;98664.97;;;21.87;59.23
73085;BME280;62974;49.460;10.892;2023-06-24T08:31:56;98656.25;;;21.35;57.19
73085;BME280;62974;49.460;10.892;2023-06-24T08:34:23;98658.63;;;21.65;58.07
73085;BME280;62974;49.460;10.892;2023-06-24T08:36:54;98668.13;;;22.18;58.50
73085;BME280;62974;49.460;10.892;2023-06-24T08:39:21;98653.31;;;21.75;56.55
73085;BME280;62974;49.460;10.892;2023-06-24T08:41:49;98661.28;;;22.37;57.43
73085;BME280;62974;49.460;10.892;2023-06-24T08:44:17;98662.22;;;21.87;58.18
73085;BME280;62974;49.460;10.892;2023-06-24T08:46:44;98661.84;;;21.95;57.21
73085;BME280;62974;49.460;10.892;2023-06-24T08:49:24;98675.00;;;21.98;59.64
73085;BME280;62974;49.460;10.892;2023-06-24T08:52:00;98680.84;;;21.35;61.60
73085;BME280;62974;49.460;10.892;2023-06-24T08:54:28;98668.91;;;21.25;59.01
73085;BME280;62974;49.460;10.892;2023-06-24T08:56:55;98665.06;;;21.09;57.57
73085;BME280;62974;49.460;10.892;2023-06-24T08:59:23;98667.13;;;21.85;54.25
73085;BME280;62974;49.460;10.892;2023-06-24T09:01:51;98663.44;;;22.35;52.58
73085;BME280;62974;49.460;10.892;2023-06-24T09:04:19;98661.91;;;22.00;52.08
73085;BME280;62974;49.460;10.892;2023-06-24T09:06:46;98672.81;;;21.29;51.66
73085;BME280;62974;49.460;10.892;2023-06-24T09:09:19;98674.16;;;20.98;54.61
73085;BME280;62974;49.460;10.892;2023-06-24T09:11:54;98677.31;;;20.78;56.16
73085;BME280;62974;49.460;10.892;2023-06-24T09:14:22;98671.88;;;21.23;55.64
73085;BME280;62974;49.460;10.892;2023-06-24T09:16:53;98669.53;;;21.82;54.24
73085;BME280;62974;49.460;10.892;2023-06-24T09:19:22;98661.16;;;22.27;51.43
73085;BME280;62974;49.460;10.892;2023-06-24T09:21:49;98661.13;;;22.97;53.31
73085;BME280;62974;49.460;10.892;2023-06-24T09:24:19;98657.28;;;22.93;51.66
73085;BME280;62974;49.460;10.892;2023-06-24T09:26:47;98649.94;;;22.72;50.90
73085;BME280;62974;49.460;10.892;2023-06-24T09:29:14;98650.53;;;23.06;52.12
73085;BME280;62974;49.460;10.892;2023-06-24T09:31:48;98648.34;;;22.54;47.48
73085;BME280;62974;49.460;10.892;2023-06-24T09:34:19;98664.28;;;22.57;45.08
73085;BME280;62974;49.460;10.892;2023-06-24T09:36:51;98661.75;;;22.77;46.45
73085;BME280;62974;49.460;10.892;2023-06-24T09:39:20;98683.47;;;22.19;49.82
73085;BME280;62974;49.460;10.892;2023-06-24T09:41:55;98672.53;;;21.97;46.83
73085;BME280;62974;49.460;10.892;2023-06-24T09:44:24;98669.63;;;22.25;49.90
73085;BME280;62974;49.460;10.892;2023-06-24T09:46:51;98667.50;;;22.11;49.62
73085;BME280;62974;49.460;10.892;2023-06-24T09:49:19;98654.63;;;22.55;47.04
73085;BME280;62974;49.460;10.892;2023-06-24T09:51:48;98659.66;;;23.11;48.74
73085;BME280;62974;49.460;10.892;2023-06-24T09:54:17;98649.53;;;23.44;48.90
73085;BME280;62974;49.460;10.892;2023-06-24T09:56:49;98643.88;;;24.02;48.27
73085;BME280;62974;49.460;10.892;2023-06-24T09:59:17;98641.56;;;23.79;48.45
73085;BME280;62974;49.460;10.892;2023-06-24T10:01:46;98634.66;;;23.71;47.76
73085;BME280;62974;49.460;10.892;2023-06-24T10:04:16;98640.47;;;23.80;47.92
73085;BME280;62974;49.460;10.892;2023-06-24T10:06:45;98634.94;;;22.79;46.92
73085;BME280;62974;49.460;10.892;2023-06-24T10:09:12;98630.84;;;22.33;42.61
73085;BME280;62974;49.460;10.892;2023-06-24T10:11:44;98640.16;;;22.32;46.62
73085;BME280;62974;49.460;10.892;2023-06-24T10:14:13;98627.94;;;22.93;44.66
73085;BME280;62974;49.460;10.892;2023-06-24T10:16:42;98631.19;;;23.44;46.01
73085;BME280;62974;49.460;10.892;2023-06-24T10:19:09;98618.59;;;23.16;44.84
73085;BME280;62974;49.460;10.892;2023-06-24T10:21:44;98622.66;;;23.14;45.99
73085;BME280;62974;49.460;10.892;2023-06-24T10:24:13;98630.53;;;23.74;46.71
73085;BME280;62974;49.460;10.892;2023-06-24T10:26:40;98618.44;;;23.70;46.06
73085;BME280;62974;49.460;10.892;2023-06-24T10:29:09;98608.88;;;23.72;45.76
73085;BME280;62974;49.460;10.892;2023-06-24T10:31:52;98611.09;;;23.75;46.06
73085;BME280;62974;49.460;10.892;2023-06-24T10:34:27;98616.31;;;23.82;45.95
73085;BME280;62974;49.460;10.892;2023-06-24T10:36:56;98606.25;;;23.93;46.67
73085;BME280;62974;49.460;10.892;2023-06-24T10:39:36;98604.41;;;23.24;46.82
73085;BME280;62974;49.460;10.892;2023-06-24T10:42:28;98600.84;;;22.97;46.78
73085;BME280;62974;49.460;10.892;2023-06-24T10:44:57;98610.44;;;23.26;48.05
73085;BME280;62974;49.460;10.892;2023-06-24T10:47:27;98593.88;;;23.43;45.07
73085;BME280;62974;49.460;10.892;2023-06-24T10:49:55;98594.03;;;24.15;47.16
73085;BME280;62974;49.460;10.892;2023-06-24T10:52:23;98597.59;;;23.32;49.10
73085;BME280;62974;49.460;10.892;2023-06-24T10:54:52;98595.69;;;22.69;47.64
73085;BME280;62974;49.460;10.892;2023-06-24T10:57:21;98596.84;;;22.51;48.61
73085;BME280;62974;49.460;10.892;2023-06-24T10:59:52;98586.72;;;22.30;47.69
73085;BME280;62974;49.460;10.892;2023-06-24T11:02:21;98580.94;;;22.26;48.83
73085;BME280;62974;49.460;10.892;2023-06-24T11:04:51;98583.72;;;22.53;48.61
73085;BME280;62974;49.460;10.892;2023-06-24T11:07:20;98580.50;;;23.52;47.88
73085;BME280;62974;49.460;10.892;2023-06-24T11:09:49;98564.19;;;22.44;45.22
73085;BME280;62974;49.460;10.892;2023-06-24T11:12:17;98570.66;;;22.87;46.69
73085;BME280;62974;49.460;10.892;2023-06-24T11:14:45;98567.50;;;23.84;45.93
73085;BME280;62974;49.460;10.892;2023-06-24T11:17:12;98565.16;;;24.08;43.37
73085;BME280;62974;49.460;10.892;2023-06-24T11:19:40;98562.41;;;24.13;42.63
73085;BME280;62974;49.460;10.892;2023-06-24T11:22:11;98564.47;;;24.58;43.94
73085;BME280;62974;49.460;10.892;2023-06-24T11:24:38;98558.97;;;24.48;43.10
73085;BME280;62974;49.460;10.892;2023-06-24T11:27:07;98562.75;;;24.16;43.81
73085;BME280;62974;49.460;10.892;2023-06-24T11:29:35;98552.09;;;24.40;44.17
73085;BME280;62974;49.460;10.892;2023-06-24T11:32:07;98549.63;;;24.44;45.20
73085;BME280;62974;49.460;10.892;2023-06-24T11:34:35;98542.56;;;24.88;43.60
73085;BME280;62974;49.460;10.892;2023-06-24T11:37:11;98543.59;;;24.47;43.62
73085;BME280;62974;49.460;10.892;2023-06-24T11:39:39;98543.84;;;24.35;42.71
73085;BME280;62974;49.460;10.892;2023-06-24T11:42:08;98547.94;;;24.32;44.48
73085;BME280;62974;49.460;10.892;2023-06-24T11:44:36;98543.34;;;23.76;45.38
73085;BME280;62974;49.460;10.892;2023-06-24T11:47:09;98538.28;;;24.15;43.19
73085;BME280;62974;49.460;10.892;2023-06-24T11:49:48;98539.72;;;24.27;42.07
73085;BME280;62974;49.460;10.892;2023-06-24T11:52:17;98543.38;;;24.99;45.75
73085;BME280;62974;49.460;10.892;2023-06-24T11:54:45;98535.38;;;25.38;44.86
73085;BME280;62974;49.460;10.892;2023-06-24T11:57:13;98529.66;;;25.04;42.82
73085;BME280;62974;49.460;10.892;2023-06-24T11:59:42;98534.91;;;23.98;44.73
73085;BME280;62974;49.460;10.892;2023-06-24T12:02:13;98544.81;;;24.04;43.93
73085;BME280;62974;49.460;10.892;2023-06-24T12:04:43;98539.72;;;24.27;44.74
73085;BME280;62974;49.460;10.892;2023-06-24T12:07:11;98535.94;;;24.74;44.71
73085;BME280;62974;49.460;10.892;2023-06-24T12:09:40;98533.19;;;25.30;42.98
73085;BME280;62974;49.460;10.892;2023-06-24T12:12:08;98527.09;;;25.53;44.74
73085;BME280;62974;49.460;10.892;2023-06-24T12:14:36;98531.22;;;25.60;45.82
73085;BME280;62974;49.460;10.892;2023-06-24T12:17:03;98526.13;;;25.93;44.64
73085;BME280;62974;49.460;10.892;2023-06-24T12:19:31;98520.56;;;24.98;43.05
73085;BME280;62974;49.460;10.892;2023-06-24T12:21:58;98516.38;;;24.30;44.79
73085;BME280;62974;49.460;10.892;2023-06-24T12:24:26;98524.66;;;23.78;45.44
73085;BME280;62974;49.460;10.892;2023-06-24T12:26:55;98523.53;;;23.69;46.95
73085;BME280;62974;49.460;10.892;2023-06-24T12:29:22;98520.25;;;23.67;45.28
73085;BME280;62974;49.460;10.892;2023-06-24T12:31:50;98504.31;;;24.51;41.00
73085;BME280;62974;49.460;10.892;2023-06-24T12:34:18;98503.22;;;24.83;39.76
73085;BME280;62974;49.460;10.892;2023-06-24T12:36:47;98505.13;;;24.31;42.63
73085;BME280;62974;49.460;10.892;2023-06-24T12:39:14;98520.28;;;23.82;44.34
73085;BME280;62974;49.460;10.892;2023-06-24T12:41:45;98510.88;;;23.63;42.98
73085;BME280;62974;49.460;10.892;2023-06-24T12:44:14;98518.78;;;23.54;45.25
73085;BME280;62974;49.460;10.892;2023-06-24T12:46:42;98506.06;;;23.38;44.50
73085;BME280;62974;49.460;10.892;2023-06-24T12:49:09;98512.34;;;23.80;45.20
73085;BME280;62974;49.460;10.892;2023-06-24T12:51:37;98498.00;;;24.36;42.98
73085;BME280;62974;49.460;10.892;2023-06-24T12:54:05;98496.63;;;24.53;43.07
73085;BME280;62974;49.460;10.892;2023-06-24T12:56:32;98496.09;;;24.56;44.77
73085;BME280;62974;49.460;10.892;2023-06-24T12:59:00;98496.38;;;25.00;43.67
73085;BME280;62974;49.460;10.892;2023-06-24T13:01:29;98474.38;;;25.15;40.35
73085;BME280;62974;49.460;10.892;2023-06-24T13:03:57;98483.63;;;25.45;42.41